Time;durP1;ratioP1;P1;durP2;ratioP2;P2;SDS_P1;SDS_P2;PMS_P1;PMS_P2;Temp;Humidity;BMP_temperature;BMP_pressure;BME280_temperature;BME280_humidity;BME280_pressure;Samples;Min_cycle;Max_cycle;Signal;HPM_P1;HPM_P2
2023/09/09 00:02:13;;;;;;;21.20;19.50;;;17.10;99.90;;;;;;5040418;28;20477;-62
2023/09/09 00:04:42;;;;;;;20.43;18.83;;;17.10;99.90;;;;;;5039584;28;20462;-61
2023/09/09 00:07:12;;;;;;;20.30;18.70;;;17.10;99.90;;;;;;5041579;28;20505;-60
2023/09/09 00:09:41;;;;;;;20.30;18.60;;;17.10;99.90;;;;;;5034561;28;20505;-62
2023/09/09 00:12:09;;;;;;;20.93;19.37;;;17.00;99.90;;;;;;5042834;28;20467;-62
2023/09/09 00:14:37;;;;;;;20.70;19.10;;;17.00;99.90;;;;;;5028992;28;21039;-62
2023/09/09 00:17:05;;;;;;;19.80;17.97;;;17.00;99.90;;;;;;5037194;28;20463;-61
2023/09/09 00:19:34;;;;;;;19.87;18.20;;;17.00;99.90;;;;;;5033292;28;21233;-62
2023/09/09 00:22:02;;;;;;;19.70;18.20;;;16.90;99.90;;;;;;5036301;28;20547;-62
2023/09/09 00:24:31;;;;;;;19.43;17.97;;;16.90;99.90;;;;;;5024459;28;20569;-62
2023/09/09 00:27:00;;;;;;;19.30;17.70;;;16.90;99.90;;;;;;5033084;28;20493;-62
2023/09/09 00:29:29;;;;;;;19.30;17.80;;;16.90;99.90;;;;;;5038435;28;20485;-62
2023/09/09 00:31:57;;;;;;;18.80;17.30;;;16.90;99.90;;;;;;5038620;28;20482;-62
2023/09/09 00:34:25;;;;;;;18.37;16.97;;;16.80;99.90;;;;;;5043050;28;20493;-62
2023/09/09 00:36:53;;;;;;;18.50;17.10;;;16.80;99.90;;;;;;5032837;28;20482;-62
2023/09/09 00:39:21;;;;;;;17.93;16.43;;;16.80;99.90;;;;;;5037145;28;20578;-61
2023/09/09 00:41:51;;;;;;;17.07;15.63;;;16.80;99.90;;;;;;5036988;28;20482;-61
2023/09/09 00:44:19;;;;;;;17.10;15.70;;;16.80;99.90;;;;;;5035180;28;20524;-61
2023/09/09 00:46:47;;;;;;;17.53;16.10;;;16.70;99.90;;;;;;5036502;28;20585;-62
2023/09/09 00:49:15;;;;;;;16.90;15.60;;;16.70;99.90;;;;;;5035142;28;20997;-61
2023/09/09 00:51:44;;;;;;;17.50;16.10;;;16.70;99.90;;;;;;5027426;28;20589;-60
2023/09/09 00:54:13;;;;;;;17.60;16.07;;;16.70;99.90;;;;;;5041842;28;20568;-62
2023/09/09 00:56:42;;;;;;;16.87;15.30;;;16.60;99.90;;;;;;5034913;28;20494;-62
2023/09/09 00:59:12;;;;;;;15.83;14.60;;;16.60;99.90;;;;;;5038339;28;20475;-62
2023/09/09 01:01:40;;;;;;;17.27;15.87;;;16.60;99.90;;;;;;5026152;28;20481;-61
2023/09/09 01:04:08;;;;;;;15.43;14.20;;;16.60;99.90;;;;;;5035262;28;21330;-60
2023/09/09 01:06:37;;;;;;;14.57;13.37;;;16.50;99.90;;;;;;5040128;28;20904;-62
2023/09/09 01:09:06;;;;;;;15.37;14.07;;;16.50;99.90;;;;;;5037212;28;20549;-61
2023/09/09 01:11:34;;;;;;;15.37;14.17;;;16.50;99.90;;;;;;5037408;28;20895;-62
2023/09/09 01:14:03;;;;;;;14.87;13.77;;;16.50;99.90;;;;;;5040677;28;20494;-62
2023/09/09 01:16:33;;;;;;;14.43;13.23;;;16.50;99.90;;;;;;5036699;28;20494;-62
2023/09/09 01:19:01;;;;;;;14.30;13.20;;;16.50;99.90;;;;;;5040131;28;20496;-62
2023/09/09 01:21:31;;;;;;;14.80;13.60;;;16.50;99.90;;;;;;5033536;28;20962;-62
2023/09/09 01:24:01;;;;;;;13.47;12.47;;;16.50;99.90;;;;;;5040929;28;20470;-62
2023/09/09 01:26:29;;;;;;;14.10;12.83;;;16.40;99.90;;;;;;5038464;28;20965;-61
2023/09/09 01:28:57;;;;;;;14.20;13.10;;;16.40;99.90;;;;;;5036486;28;21021;-62
2023/09/09 01:31:25;;;;;;;14.40;13.20;;;16.40;99.90;;;;;;5034446;28;20863;-60
2023/09/09 01:33:56;;;;;;;14.60;13.23;;;16.40;99.90;;;;;;5041443;28;20485;-62
2023/09/09 01:36:25;;;;;;;14.33;13.30;;;16.40;99.90;;;;;;5038225;28;20529;-60
2023/09/09 01:38:52;;;;;;;13.83;12.70;;;16.40;99.90;;;;;;5040229;28;20964;-62
2023/09/09 01:41:22;;;;;;;14.13;12.87;;;16.40;99.90;;;;;;5029801;28;20561;-62
2023/09/09 01:43:50;;;;;;;14.67;13.40;;;16.30;99.90;;;;;;5039100;28;20474;-61
2023/09/09 01:46:18;;;;;;;13.87;12.77;;;16.30;99.90;;;;;;5031691;28;20496;-61
2023/09/09 01:48:46;;;;;;;14.23;13.10;;;16.30;99.90;;;;;;5034969;28;20466;-62
2023/09/09 01:51:14;;;;;;;13.70;12.60;;;16.30;99.90;;;;;;5031202;28;20620;-62
2023/09/09 01:53:42;;;;;;;13.40;12.40;;;16.30;99.90;;;;;;5042623;28;20509;-62
2023/09/09 01:56:10;;;;;;;13.97;12.87;;;16.30;99.90;;;;;;5034475;28;20498;-60
2023/09/09 01:58:39;;;;;;;14.30;13.00;;;16.30;99.90;;;;;;5041830;28;20481;-62
2023/09/09 02:01:07;;;;;;;14.20;12.80;;;16.30;99.90;;;;;;5040183;28;21420;-62
2023/09/09 02:03:35;;;;;;;13.67;12.37;;;16.30;99.90;;;;;;5041698;28;20922;-62
2023/09/09 02:06:04;;;;;;;13.23;12.13;;;16.30;99.90;;;;;;5043968;28;20487;-62
2023/09/09 02:08:32;;;;;;;13.77;12.60;;;16.30;99.90;;;;;;5044188;28;20477;-62
2023/09/09 02:11:00;;;;;;;13.10;12.00;;;16.30;99.90;;;;;;5039084;28;20550;-62
2023/09/09 02:13:28;;;;;;;14.43;13.30;;;16.30;99.90;;;;;;5040108;28;20474;-62
2023/09/09 02:16:04;;;;;;;14.40;13.13;;;16.30;99.90;;;;;;5040813;28;20514;-60
2023/09/09 02:18:32;;;;;;;14.30;12.97;;;16.30;99.90;;;;;;5037347;28;20492;-62
2023/09/09 02:21:01;;;;;;;13.70;12.60;;;16.30;99.90;;;;;;5042283;28;20498;-62
2023/09/09 02:23:29;;;;;;;14.30;13.17;;;16.30;99.90;;;;;;5036612;28;21066;-62
2023/09/09 02:25:57;;;;;;;14.47;13.27;;;16.40;99.90;;;;;;5037701;28;20548;-61
2023/09/09 02:28:26;;;;;;;14.20;13.00;;;16.40;99.90;;;;;;5038661;28;20557;-61
2023/09/09 02:30:54;;;;;;;14.20;13.07;;;16.40;99.90;;;;;;5041796;28;20934;-62
2023/09/09 02:33:24;;;;;;;14.20;13.00;;;16.50;99.90;;;;;;5031941;28;20475;-61
2023/09/09 02:35:52;;;;;;;13.83;12.73;;;16.50;99.90;;;;;;5037759;28;20516;-61
2023/09/09 02:38:20;;;;;;;15.03;13.73;;;16.60;99.90;;;;;;5040764;28;20473;-62
2023/09/09 02:40:48;;;;;;;15.47;14.10;;;16.60;99.90;;;;;;5036351;28;20466;-61
2023/09/09 02:43:16;;;;;;;15.00;13.73;;;16.60;99.90;;;;;;5036689;28;20629;-62
2023/09/09 02:45:43;;;;;;;15.83;14.23;;;16.60;99.90;;;;;;5044042;28;20490;-61
2023/09/09 02:48:11;;;;;;;14.83;13.47;;;16.70;99.90;;;;;;5039685;28;20853;-60
2023/09/09 02:50:41;;;;;;;14.50;13.30;;;16.80;99.90;;;;;;5042603;28;20466;-61
2023/09/09 02:53:10;;;;;;;14.33;13.13;;;16.80;99.90;;;;;;5037498;28;20477;-62
2023/09/09 02:55:38;;;;;;;14.73;13.60;;;16.90;99.90;;;;;;5037755;28;20561;-61
2023/09/09 02:58:06;;;;;;;13.50;12.40;;;16.90;99.90;;;;;;5041116;28;20474;-61
2023/09/09 03:00:34;;;;;;;14.63;13.40;;;16.90;99.90;;;;;;5039313;28;20621;-62
2023/09/09 03:03:02;;;;;;;13.90;12.80;;;16.80;99.90;;;;;;5039584;28;20470;-62
2023/09/09 03:05:34;;;;;;;14.00;12.90;;;16.80;99.90;;;;;;5035831;28;20861;-61
2023/09/09 03:08:04;;;;;;;14.80;13.60;;;16.80;99.90;;;;;;5046262;28;21014;-62
2023/09/09 03:10:32;;;;;;;14.70;13.50;;;16.80;99.90;;;;;;5039827;28;20470;-61
2023/09/09 03:13:00;;;;;;;14.37;13.17;;;16.80;99.90;;;;;;5042548;28;20471;-61
2023/09/09 03:15:28;;;;;;;13.77;12.67;;;16.70;99.90;;;;;;5037412;28;20486;-61
2023/09/09 03:17:56;;;;;;;14.83;13.30;;;16.70;99.90;;;;;;5045080;28;20573;-62
2023/09/09 03:20:24;;;;;;;15.03;13.83;;;16.70;99.90;;;;;;5041400;28;20853;-61
2023/09/09 03:22:53;;;;;;;15.60;14.30;;;16.70;99.90;;;;;;5045495;28;20470;-61
2023/09/09 03:25:22;;;;;;;15.43;14.23;;;16.70;99.90;;;;;;5035488;28;20486;-62
2023/09/09 03:27:50;;;;;;;13.47;12.37;;;16.70;99.90;;;;;;5033248;28;20562;-62
2023/09/09 03:30:18;;;;;;;15.07;13.87;;;16.70;99.90;;;;;;5040995;28;21185;-61
2023/09/09 03:32:46;;;;;;;14.50;13.40;;;16.70;99.90;;;;;;5036974;28;20506;-61
2023/09/09 03:35:14;;;;;;;14.27;13.07;;;16.70;99.90;;;;;;5035570;28;20544;-61
2023/09/09 03:37:42;;;;;;;14.63;13.33;;;16.70;99.90;;;;;;5038589;28;20470;-61
2023/09/09 03:40:11;;;;;;;15.50;14.20;;;16.60;99.90;;;;;;5039506;28;20459;-62
2023/09/09 03:42:41;;;;;;;14.30;13.10;;;16.60;99.90;;;;;;5039228;28;20502;-61
2023/09/09 03:45:10;;;;;;;14.70;13.30;;;16.60;99.90;;;;;;5039106;28;20525;-61
2023/09/09 03:47:38;;;;;;;14.50;13.20;;;16.60;99.90;;;;;;5046868;28;20509;-61
2023/09/09 03:50:07;;;;;;;13.93;12.83;;;16.60;99.90;;;;;;5035267;28;21015;-61
2023/09/09 03:52:35;;;;;;;14.40;13.20;;;16.60;99.90;;;;;;5033461;28;20537;-61
2023/09/09 03:55:03;;;;;;;14.33;13.13;;;16.60;99.90;;;;;;5033188;28;20513;-61
2023/09/09 03:57:31;;;;;;;14.37;13.20;;;16.60;99.90;;;;;;5033090;28;20500;-61
2023/09/09 04:00:00;;;;;;;15.10;13.93;;;16.60;99.90;;;;;;5031429;28;20472;-61
2023/09/09 04:02:28;;;;;;;14.30;13.10;;;16.60;99.90;;;;;;5033865;28;20483;-62
2023/09/09 04:04:56;;;;;;;15.23;13.93;;;16.60;99.90;;;;;;5036184;28;20490;-61
2023/09/09 04:07:24;;;;;;;14.53;13.40;;;16.50;99.90;;;;;;5033820;28;20980;-62
2023/09/09 04:09:54;;;;;;;14.23;13.13;;;16.50;99.90;;;;;;5034354;28;20539;-61
2023/09/09 04:12:22;;;;;;;14.63;13.37;;;16.50;99.90;;;;;;5034007;28;20681;-62
2023/09/09 04:14:50;;;;;;;14.33;13.13;;;16.50;99.90;;;;;;5041767;28;20566;-62
2023/09/09 04:17:20;;;;;;;14.37;13.17;;;16.50;99.90;;;;;;5041971;28;20523;-62
2023/09/09 04:19:48;;;;;;;13.60;12.43;;;16.50;99.90;;;;;;5043030;28;20549;-61
2023/09/09 04:22:16;;;;;;;14.17;13.07;;;16.50;99.90;;;;;;5024563;28;20470;-62
2023/09/09 04:24:44;;;;;;;14.20;13.20;;;16.60;99.90;;;;;;5039228;28;20525;-61
2023/09/09 04:27:12;;;;;;;14.20;13.20;;;16.50;99.90;;;;;;5041252;28;20492;-62
2023/09/09 04:29:41;;;;;;;14.97;13.67;;;16.50;99.90;;;;;;5038711;28;20466;-62
2023/09/09 04:32:09;;;;;;;14.80;13.50;;;16.50;99.90;;;;;;5034853;28;20896;-62
2023/09/09 04:34:38;;;;;;;14.83;13.53;;;16.50;99.90;;;;;;5043507;28;20506;-62
2023/09/09 04:37:06;;;;;;;14.13;12.90;;;16.50;99.90;;;;;;5035805;28;20521;-62
2023/09/09 04:39:34;;;;;;;15.20;13.90;;;16.50;99.90;;;;;;5029662;28;20476;-61
2023/09/09 04:42:02;;;;;;;15.70;14.30;;;16.50;99.90;;;;;;5035551;28;20467;-62
2023/09/09 04:44:30;;;;;;;15.80;14.30;;;16.50;99.90;;;;;;5036524;28;20481;-62
2023/09/09 04:46:58;;;;;;;14.13;13.03;;;16.50;99.90;;;;;;5031628;28;20483;-60
2023/09/09 04:49:26;;;;;;;14.30;13.10;;;16.50;99.90;;;;;;5036495;28;20503;-61
2023/09/09 04:51:55;;;;;;;14.37;13.17;;;16.50;99.90;;;;;;5036969;28;22481;-61
2023/09/09 04:54:23;;;;;;;15.23;13.93;;;16.50;99.90;;;;;;5036771;28;20818;-62
2023/09/09 04:56:51;;;;;;;13.87;12.70;;;16.50;99.90;;;;;;5034367;28;20544;-61
2023/09/09 04:59:19;;;;;;;15.07;13.77;;;16.50;99.90;;;;;;5035893;28;20967;-61
2023/09/09 05:01:47;;;;;;;13.50;12.50;;;16.50;99.90;;;;;;5027557;28;20580;-60
2023/09/09 05:04:16;;;;;;;13.20;12.10;;;16.50;99.90;;;;;;5033036;28;20466;-62
2023/09/09 05:06:44;;;;;;;14.03;12.93;;;16.50;99.90;;;;;;5033702;28;20486;-62
2023/09/09 05:09:13;;;;;;;14.40;13.00;;;16.50;99.90;;;;;;5032029;28;20819;-62
2023/09/09 05:11:41;;;;;;;14.57;13.37;;;16.50;99.90;;;;;;5042871;28;20923;-62
2023/09/09 05:14:09;;;;;;;13.90;12.50;;;16.50;99.90;;;;;;5038008;28;20557;-61
2023/09/09 05:16:37;;;;;;;14.20;13.00;;;16.60;99.90;;;;;;5029799;28;20522;-62
2023/09/09 05:19:05;;;;;;;13.50;12.40;;;16.50;99.90;;;;;;5022612;28;20510;-62
2023/09/09 05:21:33;;;;;;;13.80;12.60;;;16.50;99.90;;;;;;5027674;28;20494;-60
2023/09/09 05:24:02;;;;;;;14.57;13.37;;;16.50;99.90;;;;;;5023536;28;21047;-60
2023/09/09 05:26:32;;;;;;;13.33;12.17;;;16.50;99.90;;;;;;5035338;28;20570;-61
2023/09/09 05:29:01;;;;;;;14.63;13.43;;;16.50;99.90;;;;;;5031489;28;20478;-61
2023/09/09 05:31:29;;;;;;;14.50;13.20;;;16.50;99.90;;;;;;5031038;28;20474;-62
2023/09/09 05:33:57;;;;;;;14.33;13.00;;;16.50;99.90;;;;;;5037522;28;20474;-61
2023/09/09 05:36:25;;;;;;;14.30;13.03;;;16.50;99.90;;;;;;5023739;28;20491;-62
2023/09/09 05:38:59;;;;;;;14.90;13.43;;;16.60;99.90;;;;;;5033003;28;20470;-61
2023/09/09 05:41:28;;;;;;;13.90;12.80;;;16.60;99.90;;;;;;5033399;28;20502;-61
2023/09/09 05:43:58;;;;;;;14.13;12.83;;;16.60;99.90;;;;;;5040057;28;20563;-61
2023/09/09 05:46:26;;;;;;;14.43;13.23;;;16.70;99.90;;;;;;5035602;28;20496;-62
2023/09/09 05:48:54;;;;;;;15.13;13.93;;;16.70;99.90;;;;;;5031587;28;20474;-61
2023/09/09 05:51:22;;;;;;;13.53;12.47;;;16.80;99.90;;;;;;5033334;28;20462;-62
2023/09/09 05:53:52;;;;;;;14.73;13.53;;;16.80;99.90;;;;;;5035355;28;20474;-61
2023/09/09 05:56:20;;;;;;;14.77;13.63;;;16.90;99.90;;;;;;5043893;28;20497;-61
2023/09/09 05:58:48;;;;;;;14.23;13.13;;;16.90;99.90;;;;;;5039636;28;21129;-60
2023/09/09 06:01:17;;;;;;;15.33;14.03;;;17.00;99.90;;;;;;5029404;28;20494;-60
2023/09/09 06:03:45;;;;;;;14.30;13.03;;;17.00;99.90;;;;;;5034928;28;21033;-60
2023/09/09 06:06:14;;;;;;;15.10;13.90;;;17.10;99.90;;;;;;5038381;28;20581;-61
2023/09/09 06:08:42;;;;;;;14.93;13.73;;;17.10;99.90;;;;;;5038644;28;20482;-60
2023/09/09 06:11:10;;;;;;;15.47;14.17;;;17.20;99.90;;;;;;5029888;28;20551;-61
2023/09/09 06:13:38;;;;;;;14.70;13.50;;;17.20;99.90;;;;;;5031316;28;20492;-61
2023/09/09 06:16:06;;;;;;;14.70;13.40;;;17.30;99.90;;;;;;5038344;28;20490;-61
2023/09/09 06:18:35;;;;;;;14.90;13.50;;;17.30;99.90;;;;;;5014314;28;20606;-64
2023/09/09 06:21:04;;;;;;;14.97;13.77;;;17.40;99.90;;;;;;5021167;28;20481;-64
2023/09/09 06:23:33;;;;;;;15.03;13.70;;;17.50;99.90;;;;;;5041322;28;20481;-63
2023/09/09 06:26:01;;;;;;;13.57;12.50;;;17.50;99.90;;;;;;5022158;28;20490;-61
2023/09/09 06:28:29;;;;;;;14.60;13.50;;;17.50;99.90;;;;;;5026892;28;20505;-59
2023/09/09 06:30:57;;;;;;;14.67;13.47;;;17.60;99.90;;;;;;5019124;28;20569;-61
2023/09/09 06:33:25;;;;;;;15.27;13.80;;;17.70;99.90;;;;;;5024635;28;20556;-61
2023/09/09 06:35:55;;;;;;;14.60;13.40;;;17.80;99.90;;;;;;5016654;28;20505;-60
2023/09/09 06:38:23;;;;;;;14.37;13.17;;;17.90;99.90;;;;;;5029997;28;20500;-60
2023/09/09 06:40:51;;;;;;;14.83;13.63;;;17.90;99.90;;;;;;5026661;28;20474;-59
2023/09/09 06:43:20;;;;;;;14.77;13.33;;;17.90;99.90;;;;;;5030088;28;20536;-61
2023/09/09 06:45:49;;;;;;;14.43;13.23;;;18.00;99.90;;;;;;5027128;28;20513;-61
2023/09/09 06:48:17;;;;;;;14.70;13.50;;;18.00;99.90;;;;;;5031462;28;20466;-61
2023/09/09 06:50:46;;;;;;;14.33;13.20;;;18.10;99.90;;;;;;5029580;28;21066;-61
2023/09/09 06:53:16;;;;;;;14.97;13.57;;;18.10;99.90;;;;;;5029410;28;20476;-60
2023/09/09 06:55:45;;;;;;;14.00;12.87;;;18.10;99.90;;;;;;5018702;28;20498;-60
2023/09/09 06:58:14;;;;;;;14.83;13.67;;;18.20;99.90;;;;;;5021586;28;20505;-60
2023/09/09 07:00:43;;;;;;;14.23;12.93;;;18.20;99.90;;;;;;5027574;28;20515;-59
2023/09/09 07:03:11;;;;;;;14.27;13.17;;;18.30;99.90;;;;;;5015420;28;20510;-59
2023/09/09 07:05:42;;;;;;;14.80;13.60;;;18.40;99.90;;;;;;5015702;28;20509;-60
2023/09/09 07:08:10;;;;;;;14.30;13.20;;;18.40;99.90;;;;;;5039612;28;20502;-60
2023/09/09 07:10:40;;;;;;;14.53;13.40;;;18.50;99.90;;;;;;5040853;28;20543;-60
2023/09/09 07:13:08;;;;;;;15.40;13.87;;;18.50;99.90;;;;;;5044942;28;20478;-61
2023/09/09 07:15:37;;;;;;;15.60;14.10;;;18.60;99.90;;;;;;5044542;28;20576;-61
2023/09/09 07:18:05;;;;;;;14.23;13.03;;;18.70;99.90;;;;;;5039325;28;20530;-61
2023/09/09 07:20:33;;;;;;;14.33;13.03;;;18.80;99.90;;;;;;5043298;28;20477;-61
2023/09/09 07:23:01;;;;;;;14.13;12.93;;;18.90;99.90;;;;;;5036012;28;20501;-61
2023/09/09 07:25:29;;;;;;;14.30;12.90;;;18.90;99.90;;;;;;5038592;28;20546;-61
2023/09/09 07:27:59;;;;;;;14.43;13.30;;;19.00;99.90;;;;;;5042777;28;20496;-62
2023/09/09 07:30:27;;;;;;;13.83;12.73;;;19.00;99.90;;;;;;5040199;28;20825;-61
2023/09/09 07:32:55;;;;;;;14.03;12.93;;;19.10;99.90;;;;;;5037622;28;20571;-60
2023/09/09 07:35:23;;;;;;;13.93;12.73;;;19.10;99.90;;;;;;5028520;28;20602;-60
2023/09/09 07:37:51;;;;;;;14.80;13.30;;;19.20;99.90;;;;;;5032811;28;20585;-60
2023/09/09 07:40:20;;;;;;;12.93;11.93;;;19.20;99.90;;;;;;5041379;28;21064;-61
2023/09/09 07:42:48;;;;;;;13.53;12.40;;;19.30;99.90;;;;;;5037283;28;20931;-60
2023/09/09 07:45:19;;;;;;;13.33;12.33;;;19.30;99.90;;;;;;5027322;28;20589;-60
2023/09/09 07:47:47;;;;;;;13.60;12.50;;;19.40;99.90;;;;;;5033545;28;20483;-61
2023/09/09 07:50:15;;;;;;;13.67;12.47;;;19.40;99.90;;;;;;5036414;28;20475;-61
2023/09/09 07:52:43;;;;;;;12.73;11.67;;;19.50;99.90;;;;;;5036024;28;20470;-61
2023/09/09 07:55:11;;;;;;;13.50;12.30;;;19.70;99.90;;;;;;5042007;28;20601;-61
2023/09/09 07:57:39;;;;;;;13.33;12.13;;;19.70;99.90;;;;;;5040253;28;20518;-61
2023/09/09 08:00:08;;;;;;;12.60;11.60;;;19.90;99.90;;;;;;5038862;28;20490;-61
2023/09/09 08:02:38;;;;;;;13.87;12.57;;;20.00;99.90;;;;;;5040589;28;20975;-61
2023/09/09 08:05:07;;;;;;;13.30;12.20;;;20.10;99.90;;;;;;5039972;28;20465;-61
2023/09/09 08:07:35;;;;;;;13.77;12.77;;;20.20;99.90;;;;;;5040343;28;20476;-61
2023/09/09 08:10:04;;;;;;;13.00;11.90;;;20.30;99.90;;;;;;5038555;28;21225;-62
2023/09/09 08:12:32;;;;;;;12.60;11.30;;;20.40;99.90;;;;;;5038927;28;21011;-61
2023/09/09 08:15:08;;;;;;;13.47;12.20;;;20.50;99.90;;;;;;5035875;28;20595;-60
2023/09/09 08:17:36;;;;;;;11.97;11.00;;;20.60;99.90;;;;;;5039629;28;20601;-62
2023/09/09 08:20:07;;;;;;;13.30;12.20;;;20.60;99.90;;;;;;5041490;28;20480;-61
2023/09/09 08:22:36;;;;;;;11.80;10.90;;;20.70;99.90;;;;;;5038764;28;20490;-61
2023/09/09 08:25:05;;;;;;;11.43;10.63;;;20.80;99.90;;;;;;5040555;28;20578;-61
2023/09/09 08:27:33;;;;;;;11.30;10.40;;;20.90;99.90;;;;;;5037995;28;20537;-62
2023/09/09 08:30:01;;;;;;;12.03;11.07;;;21.00;99.90;;;;;;5042114;28;20906;-60
2023/09/09 08:32:29;;;;;;;12.20;11.20;;;21.10;99.90;;;;;;5035346;28;21005;-62
2023/09/09 08:34:59;;;;;;;10.67;9.87;;;21.10;99.90;;;;;;5038103;28;20486;-62
2023/09/09 08:37:28;;;;;;;11.27;10.37;;;21.20;99.90;;;;;;5041082;28;20555;-62
2023/09/09 08:39:56;;;;;;;11.10;10.20;;;21.30;99.90;;;;;;5039930;28;20521;-62
2023/09/09 08:42:32;;;;;;;12.40;11.10;;;21.40;99.90;;;;;;5041830;28;21316;-62
2023/09/09 08:45:09;;;;;;;11.73;10.73;;;21.40;99.90;;;;;;5043418;28;20549;-62
2023/09/09 08:47:39;;;;;;;11.30;10.47;;;21.60;99.90;;;;;;5039912;28;20478;-62
2023/09/09 08:50:10;;;;;;;12.83;11.53;;;21.70;99.90;;;;;;5042730;28;20471;-61
2023/09/09 08:52:41;;;;;;;10.73;9.90;;;21.80;99.90;;;;;;5041077;28;20886;-61
2023/09/09 08:55:09;;;;;;;11.57;10.47;;;21.90;99.90;;;;;;5041776;28;20482;-62
2023/09/09 08:57:37;;;;;;;11.17;10.20;;;22.00;99.90;;;;;;5041222;28;20549;-62
2023/09/09 09:00:07;;;;;;;11.37;10.53;;;22.10;99.90;;;;;;5039679;28;20837;-61
2023/09/09 09:02:36;;;;;;;11.20;10.23;;;22.20;99.90;;;;;;5042474;28;20558;-62
2023/09/09 09:05:05;;;;;;;10.67;9.77;;;22.40;99.90;;;;;;5044625;28;20482;-65
2023/09/09 09:07:35;;;;;;;11.00;9.90;;;22.50;99.90;;;;;;5043990;28;20458;-62
2023/09/09 09:10:05;;;;;;;12.00;10.90;;;22.60;99.90;;;;;;5039466;28;20486;-61
2023/09/09 09:12:36;;;;;;;12.43;11.33;;;22.60;99.90;;;;;;5043095;28;20462;-62
2023/09/09 09:15:05;;;;;;;11.77;10.77;;;22.70;99.90;;;;;;5038682;28;20569;-63
2023/09/09 09:17:37;;;;;;;10.63;9.80;;;22.80;99.90;;;;;;5028486;28;20855;-63
2023/09/09 09:20:07;;;;;;;12.60;10.90;;;22.90;99.90;;;;;;5034265;28;20497;-62
2023/09/09 09:22:37;;;;;;;11.20;10.30;;;23.00;99.90;;;;;;5033181;28;20925;-62
2023/09/09 09:25:11;;;;;;;11.93;10.90;;;23.10;99.90;;;;;;5037586;28;21022;-63
2023/09/09 09:27:41;;;;;;;12.00;10.90;;;23.30;99.90;;;;;;5033508;28;20489;-63
2023/09/09 09:30:11;;;;;;;11.67;10.63;;;23.40;99.90;;;;;;5041642;28;20494;-63
2023/09/09 09:32:42;;;;;;;12.07;10.43;;;23.50;99.90;;;;;;5040053;28;20474;-62
2023/09/09 09:35:23;;;;;;;11.90;10.90;;;23.60;99.90;;;;;;5038273;28;20486;-62
2023/09/09 09:37:56;;;;;;;11.10;10.10;;;23.80;99.90;;;;;;5038603;28;20993;-63
2023/09/09 09:40:25;;;;;;;11.50;10.57;;;23.90;99.90;;;;;;5037701;28;20490;-63
2023/09/09 09:42:53;;;;;;;10.93;10.03;;;24.00;99.90;;;;;;5034799;28;20850;-63
2023/09/09 09:45:24;;;;;;;10.93;10.13;;;24.00;99.90;;;;;;5037369;28;20502;-63
2023/09/09 09:47:52;;;;;;;11.77;10.57;;;24.10;99.90;;;;;;5037936;28;20471;-63
2023/09/09 09:50:22;;;;;;;10.60;9.80;;;24.20;99.90;;;;;;5040282;28;20459;-62
2023/09/09 09:52:58;;;;;;;10.03;9.23;;;24.30;99.90;;;;;;5040973;28;20466;-61
2023/09/09 09:55:29;;;;;;;9.70;8.90;;;24.40;99.90;;;;;;5039735;28;20488;-62
2023/09/09 09:57:58;;;;;;;10.00;9.20;;;24.50;99.90;;;;;;5036712;28;20589;-63
2023/09/09 10:00:27;;;;;;;9.80;9.00;;;24.60;99.90;;;;;;5043989;28;20500;-62
2023/09/09 10:02:57;;;;;;;10.10;9.23;;;24.80;99.90;;;;;;5039574;28;20963;-61
2023/09/09 10:05:27;;;;;;;10.47;9.67;;;24.90;99.90;;;;;;5042264;28;20532;-62
2023/09/09 10:08:03;;;;;;;10.03;9.13;;;24.90;99.90;;;;;;5045684;28;20473;-62
2023/09/09 10:10:36;;;;;;;10.50;9.50;;;24.90;99.90;;;;;;5043331;28;20489;-62
2023/09/09 10:13:10;;;;;;;10.00;9.20;;;25.00;99.90;;;;;;5041219;28;20481;-63
2023/09/09 10:15:40;;;;;;;9.50;8.60;;;25.10;99.90;;;;;;5043113;28;20925;-62
2023/09/09 10:18:09;;;;;;;9.50;8.80;;;25.20;99.90;;;;;;5037983;28;20566;-62
2023/09/09 10:20:39;;;;;;;9.87;9.10;;;25.30;99.90;;;;;;5043007;28;20498;-62
2023/09/09 10:23:07;;;;;;;10.13;9.23;;;25.30;99.90;;;;;;5042097;28;20566;-61
2023/09/09 10:25:38;;;;;;;10.30;9.50;;;25.30;99.90;;;;;;5040543;28;20548;-62
2023/09/09 10:28:07;;;;;;;9.73;8.97;;;25.50;99.90;;;;;;5031732;28;20474;-62
2023/09/09 10:30:36;;;;;;;9.00;8.40;;;25.50;99.90;;;;;;5027045;28;20581;-61
2023/09/09 10:33:07;;;;;;;9.87;9.10;;;25.50;99.90;;;;;;5027110;28;20501;-62
2023/09/09 10:35:38;;;;;;;9.90;8.80;;;25.60;99.90;;;;;;5018676;28;20497;-62
2023/09/09 10:38:07;;;;;;;9.43;8.73;;;25.70;99.90;;;;;;5024837;28;20489;-62
2023/09/09 10:40:37;;;;;;;10.00;9.30;;;25.90;99.90;;;;;;5022506;28;20509;-61
2023/09/09 10:43:05;;;;;;;10.30;9.50;;;25.90;99.90;;;;;;5022443;28;20922;-62
2023/09/09 10:45:41;;;;;;;9.70;9.00;;;26.10;99.90;;;;;;5012038;28;20490;-62
2023/09/09 10:48:10;;;;;;;9.83;9.20;;;26.20;99.90;;;;;;5016284;28;20601;-61
2023/09/09 10:50:40;;;;;;;9.30;8.60;;;26.30;99.90;;;;;;5030022;28;20485;-61
2023/09/09 10:53:22;;;;;;;9.70;8.90;;;26.40;99.90;;;;;;5019601;28;20467;-60
2023/09/09 10:55:54;;;;;;;9.07;8.37;;;26.60;99.90;;;;;;5027709;28;20513;-59
2023/09/09 10:58:32;;;;;;;9.50;8.80;;;26.70;99.90;;;;;;5019332;28;20571;-63
2023/09/09 11:01:00;;;;;;;10.17;9.17;;;26.80;99.90;;;;;;5024310;28;20535;-64
2023/09/09 11:03:36;;;;;;;9.50;8.70;;;26.90;99.90;;;;;;5021433;28;20480;-67
2023/09/09 11:06:06;;;;;;;9.47;8.67;;;27.00;99.90;;;;;;5019038;28;20523;-65
2023/09/09 11:08:37;;;;;;;10.50;8.77;;;27.20;99.90;;;;;;5016939;28;20519;-65
2023/09/09 11:11:08;;;;;;;9.83;9.13;;;27.20;99.90;;;;;;5024832;28;20478;-62
2023/09/09 11:13:44;;;;;;;9.93;9.23;;;27.30;99.90;;;;;;5014091;28;20561;-63
2023/09/09 11:16:26;;;;;;;8.60;7.90;;;27.40;99.90;;;;;;5014630;28;21396;-60
2023/09/09 11:18:54;;;;;;;8.90;8.30;;;27.50;99.90;;;;;;5030608;28;20478;-61
2023/09/09 11:21:23;;;;;;;8.67;7.97;;;27.70;99.90;;;;;;5032874;28;20490;-60
2023/09/09 11:23:51;;;;;;;8.13;7.63;;;27.70;99.90;;;;;;5034251;28;20497;-61
2023/09/09 11:26:21;;;;;;;8.60;7.90;;;27.90;99.90;;;;;;5031472;28;21027;-61
2023/09/09 11:28:50;;;;;;;9.33;8.60;;;28.00;99.90;;;;;;5034768;28;20480;-61
2023/09/09 11:31:18;;;;;;;8.60;8.10;;;28.10;99.90;;;;;;5035075;28;20497;-61
2023/09/09 11:33:46;;;;;;;9.60;7.93;;;28.30;99.90;;;;;;5031542;28;20651;-65
2023/09/09 11:36:18;;;;;;;8.70;8.10;;;28.40;99.90;;;;;;5032970;28;21067;-64
2023/09/09 11:38:46;;;;;;;8.67;8.07;;;28.50;99.90;;;;;;5035863;28;20474;-61
2023/09/09 11:41:23;;;;;;;9.33;8.57;;;28.70;99.90;;;;;;5032938;28;20833;-61
2023/09/09 11:44:00;;;;;;;8.97;8.37;;;28.90;99.90;;;;;;5040121;28;20474;-61
2023/09/09 11:46:39;;;;;;;9.47;8.67;;;29.00;99.90;;;;;;5039319;28;20486;-60
2023/09/09 11:49:07;;;;;;;9.77;8.60;;;29.10;99.90;;;;;;5042855;28;20556;-62
2023/09/09 11:51:36;;;;;;;9.20;8.33;;;29.20;99.90;;;;;;5042831;28;20529;-62
2023/09/09 11:54:04;;;;;;;9.03;8.40;;;29.40;99.90;;;;;;5042521;28;20876;-62
2023/09/09 11:56:34;;;;;;;8.63;8.03;;;29.50;99.90;;;;;;5039059;28;20491;-61
2023/09/09 11:59:07;;;;;;;8.37;7.67;;;29.70;99.90;;;;;;5039736;28;20593;-62
2023/09/09 12:01:41;;;;;;;7.40;6.90;;;29.80;99.90;;;;;;5040547;28;20530;-62
2023/09/09 12:04:10;;;;;;;9.40;8.60;;;29.90;99.90;;;;;;5037375;28;20479;-61
2023/09/09 12:06:40;;;;;;;9.20;8.50;;;30.10;99.90;;;;;;5033173;28;20585;-60
2023/09/09 12:09:09;;;;;;;8.30;7.70;;;30.20;99.90;;;;;;5039537;28;21063;-62
2023/09/09 12:11:40;;;;;;;8.37;7.67;;;30.40;99.90;;;;;;5039498;28;20959;-62
2023/09/09 12:14:10;;;;;;;7.70;7.10;;;30.60;99.90;;;;;;5036422;28;21063;-60
2023/09/09 12:16:39;;;;;;;8.60;7.83;;;30.70;99.90;;;;;;5039161;28;20848;-61
2023/09/09 12:19:12;;;;;;;7.13;6.53;;;30.90;99.90;;;;;;5039736;28;20470;-61
2023/09/09 12:21:44;;;;;;;6.67;6.17;;;31.00;94.80;;;;;;5035544;28;20500;-62
2023/09/09 12:24:12;;;;;;;7.00;6.60;;;31.20;90.20;;;;;;5042285;28;21041;-62
2023/09/09 12:26:50;;;;;;;7.00;6.50;;;31.30;90.80;;;;;;5042695;28;20501;-62
2023/09/09 12:29:19;;;;;;;6.63;6.23;;;31.40;91.20;;;;;;5038100;28;20983;-61
2023/09/09 12:31:52;;;;;;;6.80;6.30;;;31.50;86.90;;;;;;5041022;28;20549;-62
2023/09/09 12:34:20;;;;;;;7.00;6.50;;;31.70;93.10;;;;;;5040716;28;20488;-61
2023/09/09 12:36:48;;;;;;;6.33;5.93;;;31.90;93.10;;;;;;5035063;28;20502;-62
2023/09/09 12:39:23;;;;;;;6.70;6.20;;;32.00;91.10;;;;;;5037276;28;20804;-62
2023/09/09 12:42:06;;;;;;;6.63;6.13;;;32.20;84.80;;;;;;5039618;28;21176;-62